Burlington, Oklahoma
Current Conditions -  °F | °C
As of 9:15 PM on Thursday 18 Dec 2014 (Local Time) from KAVK Reporting Station
Overcast Overcast  
Wind Chill: 36°   Ceiling: 1200
Heat Index: 36°   Visibility: 10mi
Dew Point: 36°   Wind: 0mph
Humidity: 100%   Direction: NA
Pressure: 30.23"   Gusts: NA
Location:  36.9°N, 98.42°W
Report Text: KAVK 190315Z AUTO 00000KT 10SM OVC012 02/02 A3023 RMK AO2
Loading
Personal Weather Stations






























Interactive Weather Map New forecast layout! Learn more

10-Day Weather Forecast

Advertisements
Track Severe Weather on mobile